Loging...

KPDC, Korea Polar Data Center

Korea Polar Data Center Scientific observations and results from Antarctica shall
be exchanged and made freely available

Browse

Science Keywords

  1. EARTH SCIENCE
  2. > Oceans

Search 23,195 data out of 23,195

Metadata Search Results
No. Title Reg. Date
101 [KOPRI-KPDC-00000003]2003 Seismic Data, Antarctica 2025-10-01
102 [KOPRI-KPDC-00000002]2004 Seismic Data, Antarctica 2025-10-01
103 [KOPRI-KPDC-00001084]Underway measurements of net community production in the Amudsen Sea 2025-10-01
104 [KOPRI-KPDC-00001083]Underway measurements of dimethylsulfide in the Amudsen Sea 2025-10-01
105 [KOPRI-KPDC-00000665]RV Helmer Hanssen 2016 Cruise into Fjorden, Svalbard 2025-10-01
106 [KOPRI-KPDC-00002899]CTD Profiles from the 2025 RV Helmer Hanssen Cruise in northern Svalbard 2025-10-01
107 [KOPRI-KPDC-00002898]Gravity Core from Antarctic peninsula Sea (EAP13-GC17) 2025-10-01
108 [KOPRI-KPDC-00002895]Box Core from Antarctic peninsula Sea (EAP13-BC16A) 2025-10-01
109 [KOPRI-KPDC-00002897]Gravity Core from Antarctic peninsula Sea (EAP13-GC16B) 2025-10-01
110 [KOPRI-KPDC-00002896]Gravity Core from Antarctic peninsula Sea (EAP13-GC14A) 2025-10-01
111 [KOPRI-KPDC-00002881]Temporal variation of marine phytoplankton in the surface water of the Antarctic Jang Bogo Station in Terra Nova Bay, January 2025 - June 2025 2025-09-26
112 [KOPRI-KPDC-00000319]Multibeam data of around KOPRIdge, Antarctic ocean, January-Februray, 2013 2025-09-26
113 [KOPRI-KPDC-00000276]Multibeam data of around KOPRIdge, Antarctic ocean. December, 2011. 2025-09-26
114 [KOPRI-KPDC-00000275]Multibeam data of around KOPRIdge, Antarctic ocean. March, 2011. 2025-09-26
115 [KOPRI-KPDC-00000264]Multibeam data of Amundsen sea in Antarctic, 2012 2025-09-26
116 [KOPRI-KPDC-00002882]Temporal variation of phytoplankton in the surface water of Marian Cove, King George Island, Antarctica, January 2025 - June 2025 2025-09-26
117 [KOPRI-KPDC-00002879]Gravity Core from Antarctic Amundsen Sea (AM20-GC11) 2025-09-25
118 [KOPRI-KPDC-00002878]Gravity Core from Antarctic Amundsen Sea (AM20-GC10) 2025-09-25
119 [KOPRI-KPDC-00002880]Gravity Core from Antarctic Amundsen Sea (AM20-GC12B) 2025-09-25
120 [KOPRI-KPDC-00002367]Inorganic carbon parameters and stable carbon isotope (δ13C) of DIC in the Ross Sea (Dec. 2020) 2025-09-23
121 [KOPRI-KPDC-00002872]Box Core from Antarctic ROSS Sea (RS14-BC04) 2025-09-16
122 [KOPRI-KPDC-00002871]Box Core from Antarctic ROSS Sea (RS14-BC03) 2025-09-16
123 [KOPRI-KPDC-00002870]Box Core from Antarctic ROSS Sea (RS14-BC02) 2025-09-16
124 [KOPRI-KPDC-00002869]Box core from Antarctic Ross Sea (RS14-BC01) 2025-09-16
125 [KOPRI-KPDC-00001245]ASI Algorithm Daily AMSR2 (AND AMSR-E) Antarctic Sea ice Concentration 2015 2025-09-15
126 [KOPRI-KPDC-00001247]ASI Algorithm Daily AMSR2 (AND AMSR-E) Antarctic Sea ice Concentration 2014 2025-09-15
127 [KOPRI-KPDC-00001249]ASI Algorithm Daily AMSR2 (AND AMSR-E) Antarctic Sea ice Concentration 2013 2025-09-15
128 [KOPRI-KPDC-00001009]Near-Real-Time DMSP SSMIS Daily Polar Gridded Sea Ice Concentrations, Arctic, 2016 2025-09-15
129 [KOPRI-KPDC-00001010]Near-Real-Time DMSP SSMIS Daily Polar Gridded Sea Ice Concentrations, Arctic, 2017 2025-09-15
130 [KOPRI-KPDC-00002803]Gravity Core from Antarctic ROSS Sea (RS25-GC08) 2025-09-15
131 [KOPRI-KPDC-00002804]Gravity Core from Antarctic ROSS Sea (RS25-GC09) 2025-09-15
132 [KOPRI-KPDC-00002801]Gravity Core from Antarctic ROSS Sea (RS25-GC06) 2025-09-11
133 [KOPRI-KPDC-00002799]Gravity Core from Antarctic ROSS Sea (RS25-GC04) 2025-09-11
134 [KOPRI-KPDC-00002831]Bulk sediment properties and lignin phenols for sediment cores from the Kongsfjorden, Svalbard (HH22 and HH23) 2025-09-10
135 [KOPRI-KPDC-00002823]Bulk sediment properties and terrestrial biomarkers for sediment cores (ARA08C/02-2BC, ARA08C/03-2BC, and ARA04C-40MUC) from the Mackenzie Trough in the Beaufort Sea, collected in 2013 and 2017 2025-09-10
136 [KOPRI-KPDC-00002738]Bulk parameters (TOC, Ntot, Norg, d13C, 14C, Mean grain size, sorting) for surface sediment samples in Svalbard fjords 2025-09-10
137 [KOPRI-KPDC-00002867]Fluorometer data on ARAON DaDis for Antarctic cruise, 2024/2025 2025-08-27
138 [KOPRI-KPDC-00002866]GPS data on ARAON DaDis for Antarctic cruise, 2024/2025 2025-08-27
139 [KOPRI-KPDC-00002865]Gyro compass data on ARAON DaDis for Antarctic cruise, 2024/2025 2025-08-27
140 [KOPRI-KPDC-00002864]Motion sensor data on ARAON DaDis for Antarctic cruise, 2024/2025 2025-08-27
141 [KOPRI-KPDC-00002863]Thermosalinograph data on ARAON DaDis for Antarctic cruise, 2024/2025 2025-08-27
142 [KOPRI-KPDC-00002862]Weather data on ARAON DaDis for Antarctic cruise, 2024/2025 2025-08-27
143 [KOPRI-KPDC-00002861]Wind data on ARAON DaDis for Antarctic cruise, 2024/2025 2025-08-27
144 [KOPRI-KPDC-00002860]Fluorometer data on ARAON DaDis for Arctic cruise, 2024 2025-08-27
145 [KOPRI-KPDC-00002859]GPS data on ARAON DaDis for Arctic cruise, 2024 2025-08-27
146 [KOPRI-KPDC-00002858]Gyro compass data on ARAON DaDis for Arctic cruise, 2024 2025-08-27
147 [KOPRI-KPDC-00002857]Motion sensor data on ARAON DaDis for Arctic cruise, 2024 2025-08-27
148 [KOPRI-KPDC-00002856]Thermosalinograph data on ARAON DaDis for Arctic cruise, 2024 2025-08-27
149 [KOPRI-KPDC-00002855]Weather data on ARAON DaDis for Arctic cruise, 2024 2025-08-27
150 [KOPRI-KPDC-00002854]Wind data on ARAON DaDis for Arctic cruise, 2024 2025-08-27
151 [KOPRI-KPDC-00002853]Gravity Core from Antarctic Amundsen Sea (AM20-GC08) 2025-08-22
152 [KOPRI-KPDC-00002852]Gravity Core from Antarctic Amundsen Sea (AM20-GC07B) 2025-08-22
153 [KOPRI-KPDC-00000715]ANA04B LADCP 2025-08-14
154 [KOPRI-KPDC-00002850]Gravity Core from Antarctic Ross Sea (RS19-GC20) 2025-08-08
155 [KOPRI-KPDC-00002849]Gravity Core from Antarctic Ross Sea (RS19-GC19) 2025-08-08
156 [KOPRI-KPDC-00002848]Gravity Core from Antarctic Ross Sea (RS19-GC17) 2025-08-08
157 [KOPRI-KPDC-00002845]Biogeochemical dataset obtained from the Ross Sea during the 2023 Antarctic expedition 2025-07-14
158 [KOPRI-KPDC-00002843]Tidal variation observation of the King Sejong Station, Antarctica in 2025 2025-06-05
159 [KOPRI-KPDC-00002841]Gravity Core from Antarctic ROSS Sea (RS19-GC15) 2025-05-29
160 [KOPRI-KPDC-00002840]Gravity Core from Antarctic ROSS Sea (RS19-GC13) 2025-05-29
161 [KOPRI-KPDC-00002839]Gravity Core from Antarctic ROSS Sea (RS19-GC12) 2025-05-29
162 [KOPRI-KPDC-00002838]Gravity Core from Antarctic ROSS Sea (RS15-GC84B) 2025-05-29
163 [KOPRI-KPDC-00002837]Gravity Core from Antarctic ROSS Sea (RS15-GC84A) 2025-05-29
164 [KOPRI-KPDC-00002836]Gravity Core from Antarctic ROSS Sea (RS15-GC83) 2025-05-29
165 [KOPRI-KPDC-00002835]Gravity Core from Antarctic ROSS Sea (RS15-GC82) 2025-05-29
166 [KOPRI-KPDC-00002834]Gravity Core from Antarctic ROSS Sea (RS15-GC81) 2025-05-29
167 [KOPRI-KPDC-00002833]Gravity Core from Antarctic ROSS Sea (RS15-GC80) 2025-05-29
168 [KOPRI-KPDC-00002832]Gravity Core from Antarctic ROSS Sea (RS15-GC79) 2025-05-29
169 [KOPRI-KPDC-00002824]Tidal variation observation of the King Sejong Station, Antarctica in 2024 2025-05-22
170 [KOPRI-KPDC-00000716]ANA04B Mooring 2025-04-24
171 [KOPRI-KPDC-00002820]In-situ data of ARA15A for supporting remote sensing 2025-04-22
172 [KOPRI-KPDC-00002816]Relationship between ocean and climatological parameters in the Arctic region 2025-04-21
173 [KOPRI-KPDC-00002814]CH4 and biogeochemical data and ecosystem model outputs at Two stations in the Beaufort Sea 2025-04-17
174 [KOPRI-KPDC-00002811]Continuous monitoring of pCO2 and it relevant parameters in the coast of the Jang Bogo Station, Antarctica, in 2024 2025-04-14
175 [KOPRI-KPDC-00002812]ANA15B Hydrocasting observation of conductivity, temperature, and depth (CTD) 2025-04-14
176 [KOPRI-KPDC-00002458]Multibeam data on the Southern Drygalski Ice Tongue, ANA14C 2025-04-07
177 [KOPRI-KPDC-00002457]Multibeam data near the Ross Ice Shelf, ANA14C 2025-04-07
178 [KOPRI-KPDC-00002778]Long-term Observation of current, temperature, salinity profile using moored system in Little American Basin, Ross Sea(2023-2025) 2025-03-27
179 [KOPRI-KPDC-00002777]Long-term Observation of current, temperature, salinity profile using moored system in Southeast Indian Ridge (2021-2025) 2025-03-27
180 [KOPRI-KPDC-00002776]LADCP Data in the Ross Sea, Antarctica in 2025 2025-03-27
181 [KOPRI-KPDC-00002775]CTD Data in the Ross Sea, Antarctica in 2025 2025-03-27
182 [KOPRI-KPDC-00002773]Gravity Core from Antarctic ROSS Sea (RS15-GC78) 2025-03-25
183 [KOPRI-KPDC-00002770]Gravity Core from Antarctic ROSS Sea (RS15-GC77) 2025-03-25
184 [KOPRI-KPDC-00002769]Gravity Core from Antarctic ROSS Sea (RS15-GC76) 2025-03-25
185 [KOPRI-KPDC-00002767]Gondwana biologger data (2024) 2025-03-25
186 [KOPRI-KPDC-00002765]Temporal variation of marine phytoplankton in the surface water of the Antarctic Jang Bogo Station in Terra Nova Bay, July 2024 - December 2024 2025-03-20
187 [KOPRI-KPDC-00002766]Temporal variation of phytoplankton in the surface water of Marian Cove, King George Island, Antarctica, July 2024 - December 2024 2025-03-20
188 [KOPRI-KPDC-00002764]Multibeam data of the Little America Basin in Ross Sea, ANA15B 2025-03-18
189 [KOPRI-KPDC-00002763]Datasets for the Arctic cruises in 2019 and 2022 2025-03-05
190 [KOPRI-KPDC-00002762]ARA05B EK60 raw data in the western Arctic Ocean, 2014 2025-02-20
191 [KOPRI-KPDC-00002761]ARA14B EK80 raw data in the western Arctic Ocean, 2023 2025-02-20
192 [KOPRI-KPDC-00002760]ARA13B EK80 raw data in the western Arctic Ocean, 2022 2025-02-20
193 [KOPRI-KPDC-00002759]ARA12B EK60 raw data in the western Arctic Ocean, 2021 2025-02-20
194 [KOPRI-KPDC-00002758]ANA08B EK60 raw data in the Amundsen Sea, 2017/18 2025-02-20
195 [KOPRI-KPDC-00002757]ANA14C EK80 data in the Krill Research Zone, Ross Sea, 2024 2025-02-20
196 [KOPRI-KPDC-00002756]ARA06B EK60 raw data in the western Arctic Ocean, 2015 2025-02-20
197 [KOPRI-KPDC-00002755]ARA07B EK60 raw data in the western Arctic Ocean, 2016 2025-02-20
198 [KOPRI-KPDC-00002754]ARA08B EK60 raw data in the western Arctic Ocean, 2017 2025-02-20
199 [KOPRI-KPDC-00002743]ANA13B EK80 data in the Ross Sea, 2023 2025-02-20
200 [KOPRI-KPDC-00002753]ARA09B EK60 raw data in the western Arctic Ocean, 2018 2025-02-20